Time;durP1;ratioP1;P1;durP2;ratioP2;P2;SDS_P1;SDS_P2;PMS_P1;PMS_P2;Temp;Humidity;BMP_temperature;BMP_pressure;BME280_temperature;BME280_humidity;BME280_pressure;Samples;Min_cycle;Max_cycle;Signal;HPM_P1;HPM_P2
2023/10/22 00:01:07;;;;;;;;;1.20;0.80;;;;;17.30;42.02;98534.16;5065603;28;8977;-69
2023/10/22 00:03:56;;;;;;;;;1.00;0.00;;;;;17.31;42.04;98527.91;5065814;28;8855;-70
2023/10/22 00:06:27;;;;;;;;;0.00;0.00;;;;;17.49;41.62;98532.00;5049686;28;8820;-69
2023/10/22 00:08:56;;;;;;;;;0.60;0.00;;;;;17.55;41.08;98533.41;5065769;28;8863;-69
2023/10/22 00:11:25;;;;;;;;;0.00;0.00;;;;;17.43;41.25;98520.94;5064877;28;8870;-70
2023/10/22 00:13:55;;;;;;;;;0.80;0.00;;;;;17.39;41.52;98529.09;5028499;28;8877;-68
2023/10/22 00:16:24;;;;;;;;;0.80;0.80;;;;;17.61;40.82;98525.03;5053030;28;8844;-69
2023/10/22 00:18:53;;;;;;;;;0.00;0.00;;;;;17.89;40.52;98525.84;5068387;28;8894;-69
2023/10/22 00:21:22;;;;;;;;;0.40;0.40;;;;;17.73;40.84;98508.25;5033292;28;8842;-69
2023/10/22 00:23:50;;;;;;;;;0.60;0.60;;;;;17.62;40.79;98505.47;5033151;28;8855;-69
2023/10/22 00:26:20;;;;;;;;;1.80;0.00;;;;;17.53;40.59;98504.31;5068402;28;8845;-68
2023/10/22 00:28:51;;;;;;;;;0.40;0.00;;;;;17.32;41.30;98500.38;5066913;28;8874;-69
2023/10/22 00:31:21;;;;;;;;;0.00;0.00;;;;;17.31;40.98;98496.88;5067123;28;8854;-68
2023/10/22 00:33:51;;;;;;;;;0.40;0.00;;;;;17.35;41.14;98505.50;5083417;28;9623;-70
2023/10/22 00:36:20;;;;;;;;;1.40;1.40;;;;;17.21;41.29;98506.34;5067934;28;8880;-70
2023/10/22 00:38:49;;;;;;;;;0.00;0.00;;;;;17.20;40.97;98505.50;5066970;28;8846;-69
2023/10/22 00:41:18;;;;;;;;;0.00;0.00;;;;;17.10;40.77;98508.88;5068005;28;8847;-69
2023/10/22 00:43:47;;;;;;;;;0.00;0.00;;;;;17.07;41.02;98501.94;5060714;28;8857;-69
2023/10/22 00:46:19;;;;;;;;;0.60;0.60;;;;;17.20;40.28;98517.94;5063325;28;8857;-68
2023/10/22 00:48:49;;;;;;;;;1.40;0.60;;;;;17.30;39.90;98519.06;5080509;28;8985;-69
2023/10/22 00:51:18;;;;;;;;;0.00;0.00;;;;;17.14;40.07;98527.16;5070823;28;8881;-70
2023/10/22 00:53:48;;;;;;;;;1.00;0.00;;;;;17.04;40.24;98525.19;5070576;28;8846;-68
2023/10/22 00:56:20;;;;;;;;;0.00;0.00;;;;;17.05;39.79;98529.56;5072231;28;8950;-69
2023/10/22 00:58:49;;;;;;;;;0.80;0.20;;;;;16.97;39.79;98545.97;5064339;28;8852;-70
2023/10/22 01:01:19;;;;;;;;;0.60;0.40;;;;;16.89;40.26;98545.59;5068973;28;8970;-69
2023/10/22 01:03:49;;;;;;;;;0.20;0.00;;;;;16.88;40.12;98562.47;5036350;28;8885;-68
2023/10/22 01:06:18;;;;;;;;;0.60;0.40;;;;;16.94;39.68;98559.44;5070548;28;8858;-69
2023/10/22 01:08:48;;;;;;;;;2.00;0.80;;;;;17.01;39.60;98576.69;5071556;28;8997;-70
2023/10/22 01:11:17;;;;;;;;;1.00;0.00;;;;;17.06;39.21;98573.72;5071679;28;8843;-70
2023/10/22 01:13:46;;;;;;;;;0.20;0.00;;;;;17.03;39.30;98596.03;5070428;28;8866;-68
2023/10/22 01:16:15;;;;;;;;;0.00;0.00;;;;;17.11;38.73;98604.34;5070612;28;8850;-70
2023/10/22 01:18:43;;;;;;;;;0.40;0.20;;;;;17.14;38.64;98611.28;5070249;28;8866;-69
2023/10/22 01:21:14;;;;;;;;;0.20;0.20;;;;;17.17;38.76;98606.66;5043705;28;8853;-70
2023/10/22 01:23:44;;;;;;;;;0.00;0.00;;;;;17.13;38.64;98610.41;5071940;28;8857;-68
2023/10/22 01:26:14;;;;;;;;;0.20;0.00;;;;;17.26;38.60;98613.19;5072297;28;8849;-70
2023/10/22 01:28:43;;;;;;;;;2.00;0.00;;;;;17.16;38.33;98620.84;5037104;28;8857;-70
2023/10/22 01:31:16;;;;;;;;;0.00;0.00;;;;;17.28;38.03;98621.91;5107255;28;8836;-69
2023/10/22 01:33:45;;;;;;;;;0.00;0.00;;;;;17.10;37.96;98623.06;5075155;28;8878;-68
2023/10/22 01:36:14;;;;;;;;;0.40;0.00;;;;;17.11;38.02;98617.63;5109252;28;8832;-71
2023/10/22 01:38:44;;;;;;;;;1.60;0.20;;;;;17.13;37.94;98626.34;5092280;28;8882;-70
2023/10/22 01:41:13;;;;;;;;;0.00;0.00;;;;;17.04;37.99;98631.38;5090085;28;8869;-72
2023/10/22 01:43:42;;;;;;;;;0.00;0.00;;;;;17.11;37.86;98622.09;5088752;28;9617;-70
2023/10/22 01:46:11;;;;;;;;;1.20;0.20;;;;;16.92;37.99;98627.69;5101092;28;8839;-69
2023/10/22 01:48:39;;;;;;;;;0.00;0.00;;;;;17.05;37.81;98627.81;5109085;28;9612;-69
2023/10/22 01:51:09;;;;;;;;;0.20;0.20;;;;;16.96;37.96;98613.28;5109241;28;8843;-69
2023/10/22 01:53:37;;;;;;;;;1.80;0.00;;;;;16.88;38.07;98610.25;5086595;28;8850;-69
2023/10/22 01:56:09;;;;;;;;;0.80;0.80;;;;;16.85;37.93;98624.56;5035971;28;8834;-70
2023/10/22 01:58:38;;;;;;;;;0.60;0.00;;;;;16.93;37.72;98622.31;5069488;28;8877;-71
2023/10/22 02:01:07;;;;;;;;;0.20;0.20;;;;;16.83;38.00;98621.16;5067294;28;8850;-70
2023/10/22 02:03:40;;;;;;;;;0.00;0.00;;;;;16.84;37.88;98627.34;5071061;28;8870;-69
2023/10/22 02:06:13;;;;;;;;;0.00;0.00;;;;;16.69;38.19;98629.97;5036324;28;8931;-69
2023/10/22 02:08:42;;;;;;;;;0.00;0.00;;;;;16.91;37.67;98623.31;5036076;28;8858;-70
2023/10/22 02:11:12;;;;;;;;;0.00;0.00;;;;;16.90;37.49;98629.59;5085685;28;8852;-70
2023/10/22 02:13:41;;;;;;;;;0.00;0.00;;;;;16.88;37.42;98624.38;5015112;28;8940;-70
2023/10/22 02:16:10;;;;;;;;;0.00;0.00;;;;;16.80;37.65;98622.19;5054320;28;9050;-70
2023/10/22 02:18:39;;;;;;;;;0.60;0.00;;;;;16.78;37.67;98628.56;5051364;28;8844;-68
2023/10/22 02:21:08;;;;;;;;;0.00;0.00;;;;;16.79;37.58;98638.22;5049835;28;8882;-70
2023/10/22 02:23:39;;;;;;;;;0.00;0.00;;;;;16.74;37.60;98640.31;5031386;28;9596;-69
2023/10/22 02:26:10;;;;;;;;;0.20;0.00;;;;;16.72;37.55;98639.53;5031010;28;8858;-70
2023/10/22 02:28:40;;;;;;;;;0.00;0.00;;;;;16.86;37.23;98641.38;5047957;28;8855;-70
2023/10/22 02:31:10;;;;;;;;;0.00;0.00;;;;;16.96;37.30;98643.34;5051047;28;8983;-69
2023/10/22 02:33:39;;;;;;;;;0.00;0.00;;;;;16.77;37.49;98643.59;5051212;28;8864;-69
2023/10/22 02:36:08;;;;;;;;;0.20;0.00;;;;;16.80;37.36;98639.94;5050900;28;8983;-69
2023/10/22 02:38:38;;;;;;;;;0.00;0.00;;;;;16.80;37.42;98650.56;5045296;28;8887;-70
2023/10/22 02:41:07;;;;;;;;;0.20;0.00;;;;;16.78;37.53;98663.06;5058082;28;9753;-68
2023/10/22 02:43:35;;;;;;;;;0.00;0.00;;;;;16.76;37.75;98676.41;5047697;28;8981;-69
2023/10/22 02:46:06;;;;;;;;;0.00;0.00;;;;;16.70;37.83;98675.91;5047577;28;8843;-69
2023/10/22 02:48:35;;;;;;;;;0.00;0.00;;;;;16.89;37.52;98678.31;5047434;28;8843;-68
2023/10/22 02:51:05;;;;;;;;;0.00;0.00;;;;;16.99;37.22;98679.47;5061947;28;8840;-68
2023/10/22 02:53:34;;;;;;;;;0.20;0.00;;;;;16.88;37.19;98685.44;5084874;28;8980;-68
2023/10/22 02:56:03;;;;;;;;;0.60;0.00;;;;;17.04;37.20;98692.47;5087550;28;8859;-69
2023/10/22 02:58:32;;;;;;;;;0.20;0.00;;;;;17.09;36.91;98696.53;5087564;28;8905;-69
2023/10/22 03:01:06;;;;;;;;;0.00;0.00;;;;;17.04;36.99;98697.75;5070767;28;8852;-69
2023/10/22 03:03:39;;;;;;;;;0.00;0.00;;;;;16.98;36.77;98696.34;5104027;28;8871;-70
2023/10/22 03:06:10;;;;;;;;;0.00;0.00;;;;;16.82;37.16;98707.03;5087352;28;8855;-67
2023/10/22 03:08:41;;;;;;;;;0.20;0.00;;;;;16.95;36.71;98701.84;5074268;28;8823;-70
2023/10/22 03:11:18;;;;;;;;;0.60;0.60;;;;;16.93;36.88;98701.94;5086698;28;8989;-69
2023/10/22 03:13:47;;;;;;;;;1.20;1.00;;;;;17.13;36.75;98700.69;5020568;28;8855;-70
2023/10/22 03:16:18;;;;;;;;;2.00;0.80;;;;;17.00;36.83;98708.59;5086998;28;8871;-69
2023/10/22 03:18:48;;;;;;;;;0.00;0.00;;;;;17.08;36.76;98713.44;5070148;28;8866;-71
2023/10/22 03:21:19;;;;;;;;;1.00;0.20;;;;;17.06;36.79;98718.00;5019328;28;8827;-69
2023/10/22 03:23:48;;;;;;;;;0.80;0.00;;;;;17.04;36.78;98727.84;5026814;28;8872;-69
2023/10/22 03:26:18;;;;;;;;;0.80;0.00;;;;;17.28;36.25;98727.31;5064265;28;8953;-68
2023/10/22 03:28:50;;;;;;;;;1.80;1.00;;;;;17.17;36.40;98726.16;5071470;28;8850;-70
2023/10/22 03:31:20;;;;;;;;;1.00;1.00;;;;;17.18;36.46;98734.97;5066441;28;8848;-69
2023/10/22 03:33:49;;;;;;;;;0.00;0.00;;;;;17.49;36.05;98741.06;5065970;28;8973;-69
2023/10/22 03:36:18;;;;;;;;;0.00;0.00;;;;;17.45;36.58;98743.03;5049831;28;8864;-70
2023/10/22 03:38:46;;;;;;;;;1.40;1.40;;;;;17.57;36.35;98747.63;5063602;28;8856;-68
2023/10/22 03:41:15;;;;;;;;;0.00;0.00;;;;;17.70;36.22;98752.13;5066233;28;8878;-69
2023/10/22 03:43:44;;;;;;;;;1.00;0.00;;;;;17.66;36.14;98751.47;5066127;28;8828;-69
2023/10/22 03:46:13;;;;;;;;;1.00;1.00;;;;;17.77;36.18;98748.16;5049620;28;8848;-68
2023/10/22 03:48:43;;;;;;;;;1.80;1.60;;;;;17.56;36.33;98751.19;5065817;28;8856;-69
2023/10/22 03:51:13;;;;;;;;;1.00;0.60;;;;;17.54;36.30;98753.09;5049734;28;8956;-69
2023/10/22 03:53:41;;;;;;;;;2.00;0.20;;;;;17.51;36.42;98757.75;5046711;28;8868;-69
2023/10/22 03:56:10;;;;;;;;;1.20;0.00;;;;;17.46;36.31;98762.53;5046286;28;8834;-70
2023/10/22 03:58:39;;;;;;;;;0.00;0.00;;;;;17.36;36.55;98771.06;5056942;28;8865;-70
2023/10/22 04:01:08;;;;;;;;;0.40;0.00;;;;;17.48;36.54;98774.75;5066086;28;9002;-69
2023/10/22 04:03:38;;;;;;;;;0.00;0.00;;;;;17.38;36.60;98763.84;5016588;28;8910;-69
2023/10/22 04:06:08;;;;;;;;;0.60;0.60;;;;;17.16;37.19;98764.25;5066071;28;8877;-70
2023/10/22 04:08:37;;;;;;;;;1.60;1.60;;;;;17.22;37.25;98767.50;5053069;28;8862;-70
2023/10/22 04:11:07;;;;;;;;;1.40;1.40;;;;;16.97;37.92;98780.44;5067413;28;8831;-69
2023/10/22 04:13:35;;;;;;;;;0.80;0.80;;;;;16.89;38.28;98782.72;5067178;28;8870;-69
2023/10/22 04:16:05;;;;;;;;;0.00;0.00;;;;;16.97;38.18;98788.41;5068638;28;8941;-70
2023/10/22 04:18:34;;;;;;;;;0.20;0.20;;;;;16.98;38.24;98794.56;5068067;28;8987;-69
2023/10/22 04:21:03;;;;;;;;;3.80;1.40;;;;;16.96;38.62;98793.81;5068529;28;8866;-69
2023/10/22 04:23:33;;;;;;;;;1.60;0.80;;;;;17.02;38.30;98785.47;5067775;28;8876;-69
2023/10/22 04:26:02;;;;;;;;;0.40;0.40;;;;;16.84;38.81;98789.25;5031640;28;8943;-69
2023/10/22 04:28:31;;;;;;;;;0.00;0.00;;;;;16.89;38.75;98788.03;5068407;28;8913;-70
2023/10/22 04:31:00;;;;;;;;;2.40;0.60;;;;;17.00;38.58;98795.34;5068154;28;8850;-70
2023/10/22 04:33:29;;;;;;;;;2.00;1.60;;;;;16.98;38.63;98799.88;5068164;28;8928;-69
2023/10/22 04:35:58;;;;;;;;;0.80;0.00;;;;;16.85;38.94;98794.44;5068221;28;8850;-69
2023/10/22 04:38:26;;;;;;;;;0.60;0.60;;;;;16.89;38.74;98797.78;5060317;28;8880;-71
2023/10/22 04:40:57;;;;;;;;;1.20;0.20;;;;;16.93;38.71;98794.84;5048096;28;8849;-70
2023/10/22 04:43:25;;;;;;;;;1.00;1.00;;;;;16.84;38.67;98791.91;5046802;28;8837;-70
2023/10/22 04:45:54;;;;;;;;;0.20;0.20;;;;;16.95;38.38;98795.63;5046712;28;8841;-69
2023/10/22 04:48:23;;;;;;;;;1.60;0.40;;;;;16.70;38.96;98812.13;5062652;28;9734;-70
2023/10/22 04:50:53;;;;;;;;;1.20;1.00;;;;;16.89;38.68;98809.25;5032858;28;8854;-70
2023/10/22 04:53:22;;;;;;;;;1.00;1.00;;;;;16.75;38.90;98811.84;5066651;28;8947;-70
2023/10/22 04:55:55;;;;;;;;;0.20;0.20;;;;;16.83;38.58;98814.91;5066687;28;8861;-70
2023/10/22 04:58:27;;;;;;;;;0.20;0.00;;;;;16.91;38.47;98809.16;5068084;28;8897;-70
2023/10/22 05:00:56;;;;;;;;;0.60;0.60;;;;;16.72;38.99;98823.53;5067523;28;8939;-70
2023/10/22 05:03:25;;;;;;;;;1.80;1.80;;;;;16.85;38.51;98828.09;5068094;28;8939;-70
2023/10/22 05:05:55;;;;;;;;;2.40;1.60;;;;;16.95;38.56;98829.28;5032645;28;8861;-69
2023/10/22 05:08:26;;;;;;;;;1.00;1.00;;;;;16.86;38.57;98822.69;5066774;28;8967;-69
2023/10/22 05:10:55;;;;;;;;;2.80;0.60;;;;;16.82;38.71;98833.59;5067409;28;8934;-70
2023/10/22 05:13:25;;;;;;;;;2.40;1.40;;;;;16.71;39.10;98835.06;5048982;28;8892;-69
2023/10/22 05:15:56;;;;;;;;;1.60;0.40;;;;;16.68;39.13;98839.69;5067910;28;8819;-69
2023/10/22 05:18:26;;;;;;;;;0.60;0.60;;;;;16.76;39.15;98842.78;5066600;28;9634;-69
2023/10/22 05:21:01;;;;;;;;;0.40;0.40;;;;;16.95;38.78;98845.22;5068002;28;8854;-69
2023/10/22 05:23:30;;;;;;;;;2.00;0.40;;;;;17.10;38.26;98851.44;5067504;28;8854;-68
2023/10/22 05:26:11;;;;;;;;;3.80;1.60;;;;;17.17;38.19;98856.28;5067531;28;8830;-69
2023/10/22 05:28:41;;;;;;;;;1.20;0.60;;;;;17.18;38.22;98857.97;5067776;28;8870;-70
2023/10/22 05:31:15;;;;;;;;;2.40;1.80;;;;;16.98;38.59;98860.94;5067463;28;8846;-69
2023/10/22 05:33:44;;;;;;;;;1.20;1.20;;;;;17.12;38.60;98858.34;5067657;28;8862;-69
2023/10/22 05:36:16;;;;;;;;;0.00;0.00;;;;;17.07;38.50;98868.38;5071113;28;8850;-69
2023/10/22 05:38:45;;;;;;;;;2.60;1.00;;;;;17.09;38.54;98870.94;5068437;28;8838;-69
2023/10/22 05:41:22;;;;;;;;;4.00;3.00;;;;;17.31;38.12;98863.44;5070853;28;8835;-69
2023/10/22 05:43:55;;;;;;;;;5.00;3.20;;;;;17.27;38.46;98872.56;5071071;28;8854;-69
2023/10/22 05:46:25;;;;;;;;;4.40;1.00;;;;;17.26;38.23;98875.28;5070741;28;8950;-69
2023/10/22 05:48:54;;;;;;;;;0.60;0.60;;;;;17.26;38.23;98870.81;5071323;28;8847;-69
2023/10/22 05:51:23;;;;;;;;;3.40;2.80;;;;;17.34;38.11;98865.94;5070873;28;8848;-69
2023/10/22 05:53:52;;;;;;;;;3.00;0.80;;;;;17.42;38.07;98873.44;5069902;28;8863;-70
2023/10/22 05:56:23;;;;;;;;;2.60;1.40;;;;;17.68;37.75;98873.66;5071172;28;8855;-69
2023/10/22 05:58:53;;;;;;;;;4.60;4.20;;;;;17.73;37.52;98874.22;5070452;28;8905;-68
2023/10/22 06:01:22;;;;;;;;;5.20;4.40;;;;;17.82;37.25;98873.66;5070338;28;8847;-69
2023/10/22 06:03:51;;;;;;;;;4.60;3.80;;;;;17.84;37.34;98876.22;5070621;28;9691;-68
2023/10/22 06:06:20;;;;;;;;;4.00;2.80;;;;;17.93;37.09;98881.84;5070507;28;8880;-67
2023/10/22 06:08:50;;;;;;;;;1.20;1.20;;;;;17.88;37.17;98880.41;5069091;28;8907;-69
2023/10/22 06:11:19;;;;;;;;;1.60;1.60;;;;;18.01;37.20;98888.47;5035521;28;8900;-69
2023/10/22 06:13:48;;;;;;;;;1.60;1.20;;;;;18.00;36.89;98887.59;5070536;28;10025;-70
2023/10/22 06:16:18;;;;;;;;;1.80;1.40;;;;;18.07;36.86;98891.63;5070672;28;8858;-70
2023/10/22 06:18:47;;;;;;;;;2.80;1.60;;;;;18.21;36.76;98896.06;5068925;28;8874;-69
2023/10/22 06:21:17;;;;;;;;;2.40;2.40;;;;;18.31;36.71;98901.69;5070445;28;8842;-69
2023/10/22 06:23:45;;;;;;;;;4.00;2.00;;;;;18.51;36.47;98905.72;5068653;28;8826;-69
2023/10/22 06:26:14;;;;;;;;;5.40;3.00;;;;;18.49;36.53;98908.47;5069845;28;8850;-68
2023/10/22 06:28:43;;;;;;;;;3.40;2.00;;;;;18.42;36.63;98907.19;5070169;28;8846;-69
2023/10/22 06:31:14;;;;;;;;;3.40;2.40;;;;;18.42;36.61;98906.31;5051749;28;8835;-72
2023/10/22 06:33:44;;;;;;;;;3.00;2.00;;;;;18.55;36.56;98905.44;5034706;28;8847;-71
2023/10/22 06:36:15;;;;;;;;;2.00;1.00;;;;;18.49;36.64;98908.47;5069542;28;8854;-70
2023/10/22 06:38:45;;;;;;;;;3.00;3.00;;;;;18.52;36.53;98910.13;5068654;28;8862;-69
2023/10/22 06:41:15;;;;;;;;;3.00;2.40;;;;;18.62;36.46;98903.22;5059524;28;8851;-70
2023/10/22 06:43:44;;;;;;;;;6.20;4.20;;;;;18.75;36.18;98896.16;5069869;28;8860;-70
2023/10/22 06:46:13;;;;;;;;;3.00;2.00;;;;;19.05;35.87;98902.28;5030013;28;8972;-70
2023/10/22 06:48:44;;;;;;;;;5.40;3.00;;;;;19.25;35.45;98911.56;5054460;28;8854;-69
2023/10/22 06:51:15;;;;;;;;;4.40;3.00;;;;;19.44;35.35;98917.38;5070020;28;8835;-68
2023/10/22 06:53:46;;;;;;;;;3.00;3.00;;;;;19.76;34.95;98917.00;5069433;28;8842;-69
2023/10/22 06:56:16;;;;;;;;;3.80;3.20;;;;;19.81;34.74;98912.22;5067839;28;8846;-83
2023/10/22 06:58:45;;;;;;;;;4.80;4.80;;;;;19.98;34.63;98907.53;5070029;28;8866;-81
2023/10/22 07:01:15;;;;;;;;;12.40;12.40;;;;;20.10;34.21;98914.66;5070069;28;8846;-82
2023/10/22 07:03:46;;;;;;;;;4.00;4.00;;;;;20.32;34.31;98915.84;5070712;28;8863;-80
2023/10/22 07:06:16;;;;;;;;;4.20;3.20;;;;;20.51;33.71;98910.88;5070623;28;8842;-80
2023/10/22 07:08:45;;;;;;;;;7.40;5.00;;;;;20.63;33.62;98915.31;5070318;28;8835;-79
2023/10/22 07:11:15;;;;;;;;;3.20;3.20;;;;;20.82;33.45;98913.94;5067896;28;8969;-79
2023/10/22 07:13:43;;;;;;;;;4.40;3.80;;;;;20.98;33.51;98911.91;5078509;28;8917;-77
2023/10/22 07:16:13;;;;;;;;;4.40;3.20;;;;;20.63;34.16;98915.31;5071156;28;8876;-78
2023/10/22 07:18:41;;;;;;;;;7.00;6.40;;;;;20.54;33.91;98915.13;5068524;28;8840;-78
2023/10/22 07:21:12;;;;;;;;;17.60;17.40;;;;;20.79;33.77;98917.72;5067473;28;8848;-78
2023/10/22 07:23:41;;;;;;;;;9.80;8.40;;;;;21.06;33.32;98919.34;5067447;28;8978;-76
2023/10/22 07:26:10;;;;;;;;;3.80;3.80;;;;;21.13;33.41;98925.09;5065483;28;8932;-74
2023/10/22 07:28:41;;;;;;;;;5.20;3.20;;;;;21.29;33.24;98930.13;5066625;28;8867;-77
2023/10/22 07:31:12;;;;;;;;;6.40;5.00;;;;;21.56;32.86;98930.72;5046244;28;8912;-78
2023/10/22 07:33:41;;;;;;;;;2.40;2.00;;;;;21.64;33.00;98930.16;5058957;28;8956;-77
2023/10/22 07:36:10;;;;;;;;;5.20;4.20;;;;;21.74;32.48;98928.44;5066135;28;8870;-77
2023/10/22 07:38:41;;;;;;;;;4.00;4.00;;;;;21.76;32.38;98928.34;5033528;28;8936;-78
2023/10/22 07:41:14;;;;;;;;;5.00;3.80;;;;;21.99;32.06;98930.09;5015358;28;8840;-78
2023/10/22 07:43:43;;;;;;;;;3.40;2.80;;;;;22.15;32.16;98932.41;5065515;28;8848;-79
2023/10/22 07:46:14;;;;;;;;;3.80;3.40;;;;;22.20;31.73;98940.94;5066173;28;8856;-77
2023/10/22 07:48:45;;;;;;;;;5.60;4.00;;;;;22.20;32.06;98938.25;5065890;28;8876;-78
2023/10/22 07:51:16;;;;;;;;;3.60;2.20;;;;;22.05;32.09;98942.09;5049148;28;8905;-76
2023/10/22 07:53:47;;;;;;;;;4.60;4.60;;;;;21.94;32.06;98948.31;5053217;28;8862;-78
2023/10/22 07:56:18;;;;;;;;;7.40;4.20;;;;;21.93;32.04;98948.44;5055555;28;8896;-77
2023/10/22 07:58:47;;;;;;;;;3.60;3.60;;;;;21.88;31.75;98940.78;5069854;28;8965;-76
2023/10/22 08:01:16;;;;;;;;;8.20;6.80;;;;;22.15;31.73;98937.75;5068574;28;8893;-77
2023/10/22 08:03:45;;;;;;;;;10.60;10.60;;;;;22.21;31.65;98945.28;5068500;28;8858;-77
2023/10/22 08:06:14;;;;;;;;;5.00;4.40;;;;;22.16;31.54;98935.91;5066758;28;8838;-75
2023/10/22 08:08:43;;;;;;;;;4.80;4.40;;;;;22.33;31.26;98937.28;5054849;28;8831;-75
2023/10/22 08:11:13;;;;;;;;;3.40;3.40;;;;;22.39;30.77;98934.13;5068410;28;8850;-78
2023/10/22 08:13:42;;;;;;;;;6.80;2.80;;;;;22.46;31.03;98937.16;5066406;28;8882;-74
2023/10/22 08:16:12;;;;;;;;;5.00;4.00;;;;;22.50;30.71;98950.16;5066985;28;8850;-75
2023/10/22 08:18:41;;;;;;;;;2.80;2.20;;;;;22.74;31.08;98954.53;5067844;28;8849;-73
2023/10/22 08:21:11;;;;;;;;;5.60;4.00;;;;;22.91;30.28;98955.88;5067350;28;8850;-75
2023/10/22 08:23:40;;;;;;;;;5.00;4.00;;;;;23.02;30.40;98949.63;5068372;28;8948;-75
2023/10/22 08:26:09;;;;;;;;;6.40;5.80;;;;;23.08;30.15;98951.81;5067848;28;8858;-76
2023/10/22 08:28:39;;;;;;;;;4.60;4.00;;;;;23.58;29.46;98952.09;5031608;28;9028;-76
2023/10/22 08:31:08;;;;;;;;;7.80;5.20;;;;;23.65;29.42;98950.59;5068198;28;8877;-78
2023/10/22 08:33:37;;;;;;;;;4.60;2.80;;;;;23.43;29.03;98950.69;5013144;28;10017;-78
2023/10/22 08:36:08;;;;;;;;;3.20;1.80;;;;;23.74;27.82;98954.34;5058254;28;8947;-76
2023/10/22 08:38:37;;;;;;;;;5.00;3.40;;;;;23.92;27.83;98957.25;5067668;28;8849;-76
2023/10/22 08:41:15;;;;;;;;;5.60;5.20;;;;;23.43;28.10;98956.03;5067727;28;10153;-75
2023/10/22 08:43:47;;;;;;;;;5.20;3.20;;;;;23.81;28.19;98963.56;5066573;28;8893;-75
2023/10/22 08:46:16;;;;;;;;;0.80;0.60;;;;;23.75;27.94;98962.25;5053081;28;8947;-76
2023/10/22 08:48:46;;;;;;;;;3.60;1.80;;;;;23.38;28.92;98962.66;5066689;28;8866;-76
2023/10/22 08:51:15;;;;;;;;;21.60;20.00;;;;;23.42;28.68;98965.94;5067677;28;8854;-77
2023/10/22 08:53:44;;;;;;;;;6.00;5.00;;;;;23.63;28.41;98973.19;5066449;28;8870;-75
2023/10/22 08:56:14;;;;;;;;;3.40;3.00;;;;;23.32;28.56;98971.22;5067870;28;8847;-75
2023/10/22 08:58:42;;;;;;;;;2.80;2.60;;;;;23.38;28.89;98968.00;5067966;28;8862;-76
2023/10/22 09:01:13;;;;;;;;;4.40;2.40;;;;;23.44;28.79;98972.00;5052570;28;8956;-75
2023/10/22 09:03:42;;;;;;;;;6.20;5.40;;;;;23.45;29.24;98976.41;5049812;28;8868;-77
2023/10/22 09:06:11;;;;;;;;;5.60;5.00;;;;;23.57;28.65;98980.75;5029972;28;8869;-72
2023/10/22 09:08:45;;;;;;;;;3.80;3.80;;;;;23.56;28.56;98978.19;5061651;28;8989;-73
2023/10/22 09:11:16;;;;;;;;;7.80;4.60;;;;;23.62;28.44;98980.38;5070324;28;8846;-72
2023/10/22 09:13:45;;;;;;;;;3.80;3.40;;;;;23.52;28.80;98988.34;5052264;28;8854;-73
2023/10/22 09:16:28;;;;;;;;;6.80;4.80;;;;;23.80;28.14;98977.13;5059791;28;8858;-75
2023/10/22 09:18:57;;;;;;;;;3.20;2.80;;;;;23.65;28.23;98981.94;5070449;28;8881;-73
2023/10/22 09:21:41;;;;;;;;;3.60;2.40;;;;;23.35;28.65;98975.47;5068747;28;8831;-73
2023/10/22 09:24:11;;;;;;;;;1.40;1.00;;;;;23.23;29.31;98984.53;5071877;28;8851;-76
2023/10/22 09:26:44;;;;;;;;;9.20;7.60;;;;;23.17;28.64;98977.84;5067847;28;8862;-77
2023/10/22 09:29:13;;;;;;;;;3.60;2.40;;;;;23.40;28.70;98978.63;5069197;28;8905;-75
2023/10/22 09:31:50;;;;;;;;;2.80;2.40;;;;;22.87;28.19;98983.88;5067580;28;8825;-74
2023/10/22 09:34:26;;;;;;;;;2.80;2.80;;;;;22.33;29.41;98972.94;5071582;28;8870;-73
2023/10/22 09:36:56;;;;;;;;;4.20;2.80;;;;;22.83;29.18;98982.41;5070423;28;8869;-73
2023/10/22 09:39:36;;;;;;;;;4.20;2.80;;;;;23.04;29.20;98972.66;5070419;28;8993;-74
2023/10/22 09:42:06;;;;;;;;;4.20;3.40;;;;;23.02;28.83;98969.25;5070788;28;8943;-74
2023/10/22 09:44:39;;;;;;;;;2.40;2.00;;;;;23.10;28.79;98971.28;5071276;28;8870;-75
2023/10/22 09:47:09;;;;;;;;;10.80;10.80;;;;;23.22;28.01;98967.56;5050812;28;8854;-74
2023/10/22 09:49:43;;;;;;;;;8.00;7.40;;;;;23.30;29.14;98964.25;5068749;28;8846;-74
2023/10/22 09:52:15;;;;;;;;;4.60;3.40;;;;;23.49;28.54;98964.44;5018057;28;8845;-73
2023/10/22 09:54:48;;;;;;;;;2.80;1.80;;;;;23.29;28.41;98973.31;5032390;28;8895;-72
2023/10/22 09:57:18;;;;;;;;;4.40;4.00;;;;;23.15;28.78;98977.97;5070000;28;8872;-74
2023/10/22 09:59:48;;;;;;;;;6.20;5.00;;;;;23.53;28.58;98973.13;5069910;28;8877;-73
2023/10/22 10:02:20;;;;;;;;;9.00;7.60;;;;;23.30;28.73;98981.22;5051023;28;9650;-74
2023/10/22 10:04:53;;;;;;;;;3.60;3.20;;;;;23.21;28.62;98970.41;5070550;28;8947;-75
2023/10/22 10:07:23;;;;;;;;;5.00;2.40;;;;;23.39;28.55;98971.53;5066656;28;8857;-74
2023/10/22 10:09:53;;;;;;;;;6.60;4.80;;;;;23.74;28.31;98976.66;5075166;28;9568;-75
2023/10/22 10:12:24;;;;;;;;;4.80;3.60;;;;;24.04;28.55;98972.31;5078835;28;8815;-75
2023/10/22 10:14:54;;;;;;;;;2.00;2.00;;;;;24.16;27.37;98978.47;5069892;28;8850;-74
2023/10/22 10:17:25;;;;;;;;;3.00;3.00;;;;;24.43;27.97;98982.41;5082794;28;8850;-74
2023/10/22 10:20:26;;;;;;;;;3.40;2.20;;;;;24.85;27.62;98972.41;5035265;28;8909;-71
2023/10/22 10:23:07;;;;;;;;;6.60;4.80;;;;;24.04;27.82;98977.69;5069316;28;8945;-70
2023/10/22 10:25:38;;;;;;;;;12.00;10.00;;;;;24.06;27.32;98974.88;5069950;28;8851;-71
2023/10/22 10:28:08;;;;;;;;;3.00;3.00;;;;;24.21;27.49;98975.41;5051365;28;8846;-69
2023/10/22 10:30:39;;;;;;;;;5.00;5.00;;;;;24.32;28.08;98983.34;5051244;28;8891;-70
2023/10/22 10:33:12;;;;;;;;;3.80;1.80;;;;;24.30;27.03;98980.84;5067850;28;8976;-71
2023/10/22 10:35:46;;;;;;;;;5.00;3.00;;;;;24.22;26.94;98980.63;5069544;28;8870;-69
2023/10/22 10:38:28;;;;;;;;;3.40;3.40;;;;;23.78;27.17;98985.28;5068257;28;9599;-70
2023/10/22 10:40:57;;;;;;;;;4.00;3.00;;;;;23.82;27.63;98985.88;5068739;28;8851;-71
2023/10/22 10:44:03;;;;;;;;;10.20;9.60;;;;;22.94;29.32;98982.41;5068208;28;8866;-70
2023/10/22 10:46:32;;;;;;;;;7.40;6.80;;;;;23.12;29.13;98980.91;5064183;28;8988;-71
2023/10/22 10:49:03;;;;;;;;;2.40;0.80;;;;;23.05;29.37;98974.34;5058106;28;8889;-72
2023/10/22 10:51:32;;;;;;;;;3.40;3.40;;;;;23.46;29.24;98971.88;5069291;28;8870;-72
2023/10/22 10:54:17;;;;;;;;;6.60;5.80;;;;;23.61;28.68;98973.31;5068538;28;8850;-73
2023/10/22 10:56:52;;;;;;;;;7.00;5.80;;;;;23.93;28.75;98980.44;5068496;28;8953;-70
2023/10/22 10:59:40;;;;;;;;;6.00;5.40;;;;;24.39;27.35;98981.00;5068508;28;8862;-72
2023/10/22 11:02:12;;;;;;;;;5.00;3.60;;;;;24.37;27.23;98983.81;5032726;28;8874;-70
2023/10/22 11:04:47;;;;;;;;;3.60;2.20;;;;;24.43;27.35;98987.78;5069403;28;8850;-70
2023/10/22 11:07:16;;;;;;;;;6.20;3.80;;;;;24.51;26.98;98975.41;5068602;28;8989;-69
2023/10/22 11:09:56;;;;;;;;;6.80;4.00;;;;;24.50;27.10;98979.06;5067974;28;8870;-69
2023/10/22 11:12:25;;;;;;;;;3.00;2.80;;;;;24.14;27.60;98988.50;5068831;28;8874;-69
2023/10/22 11:14:56;;;;;;;;;5.00;3.80;;;;;24.18;27.46;98989.09;5049618;28;8877;-70
2023/10/22 11:17:26;;;;;;;;;3.40;3.40;;;;;24.16;27.62;98992.75;5062171;28;8979;-70
2023/10/22 11:19:57;;;;;;;;;3.40;3.40;;;;;23.53;28.64;98997.25;5057649;28;8935;-69
2023/10/22 11:22:26;;;;;;;;;4.00;3.80;;;;;23.66;28.50;98989.00;5067987;28;8873;-69
2023/10/22 11:24:56;;;;;;;;;2.60;2.40;;;;;23.56;28.71;98987.13;5067683;28;8854;-69
2023/10/22 11:27:25;;;;;;;;;5.00;4.60;;;;;23.09;29.66;98975.81;5068515;28;8847;-69
2023/10/22 11:29:55;;;;;;;;;3.00;3.00;;;;;22.71;30.05;98982.44;5019276;28;8835;-70
2023/10/22 11:32:24;;;;;;;;;12.60;9.40;;;;;23.10;29.38;98985.53;5066491;28;9698;-70
2023/10/22 11:34:55;;;;;;;;;10.60;8.60;;;;;23.47;29.16;98979.81;5067871;28;8854;-70
2023/10/22 11:37:36;;;;;;;;;8.40;8.00;;;;;23.87;28.61;98989.88;5053305;28;8858;-70
2023/10/22 11:40:24;;;;;;;;;4.40;4.40;;;;;23.59;28.78;98983.31;5068200;28;8847;-70
2023/10/22 11:42:52;;;;;;;;;5.60;4.60;;;;;23.77;28.43;98983.56;5058143;28;8842;-69
2023/10/22 11:45:22;;;;;;;;;6.00;4.80;;;;;24.04;28.68;98982.22;5066140;28;8830;-70
2023/10/22 11:47:51;;;;;;;;;4.60;4.20;;;;;24.32;28.76;98988.72;5047652;28;8858;-69
2023/10/22 11:50:34;;;;;;;;;3.60;3.60;;;;;24.66;28.01;98991.13;5053534;28;8866;-70
2023/10/22 11:53:04;;;;;;;;;5.00;2.80;;;;;24.79;27.91;98989.06;5067810;28;8878;-69
2023/10/22 11:55:34;;;;;;;;;5.20;4.20;;;;;24.84;27.35;98991.38;5067520;28;8939;-70
2023/10/22 11:58:05;;;;;;;;;4.80;3.60;;;;;24.78;27.63;98994.63;5067985;28;8874;-69